createdAt,value
2018-08-03T00:00:53.052Z,8.25
2018-08-03T00:05:58.938Z,7.40
2018-08-03T00:11:02.872Z,7.00
2018-08-03T00:16:06.643Z,8.00
2018-08-03T00:21:10.667Z,6.60
2018-08-03T00:26:14.460Z,7.00
2018-08-03T00:31:19.786Z,7.00
2018-08-03T00:36:23.623Z,7.00
2018-08-03T00:41:27.420Z,7.00
2018-08-03T00:46:31.692Z,8.40
2018-08-03T00:51:35.600Z,7.50
2018-08-03T00:56:39.389Z,7.40
2018-08-03T01:01:43.153Z,7.00
2018-08-03T01:06:47.113Z,7.60
2018-08-03T01:11:51.351Z,8.00
2018-08-03T01:16:55.165Z,8.60
2018-08-03T01:21:58.947Z,8.75
2018-08-03T01:27:02.813Z,6.80
2018-08-03T01:32:06.735Z,6.25
2018-08-03T01:37:10.610Z,8.00
2018-08-03T01:42:14.390Z,6.75
2018-08-03T01:47:18.553Z,8.00
2018-08-03T01:52:24.668Z,8.00
2018-08-03T01:57:33.512Z,8.00
2018-08-03T02:02:37.458Z,9.20
2018-08-03T02:07:41.268Z,9.75
2018-08-03T02:12:45.402Z,7.60
2018-08-03T02:17:49.164Z,8.50
2018-08-03T02:22:52.918Z,6.80
2018-08-03T02:27:56.679Z,7.25
2018-08-03T02:33:00.559Z,8.00
2018-08-03T02:38:04.494Z,7.00
2018-08-03T02:59:30.979Z,7.20
2018-08-03T03:04:34.930Z,8.50
2018-08-03T03:09:38.802Z,8.75
2018-08-03T03:14:42.686Z,7.25
2018-08-03T03:19:46.508Z,9.00
2018-08-03T03:24:50.942Z,9.75
2018-08-03T03:29:54.814Z,10.00
2018-08-03T03:34:58.689Z,9.00
2018-08-03T03:40:03.944Z,8.75
2018-08-03T03:45:08.058Z,10.00
2018-08-03T03:50:11.764Z,11.00
2018-08-03T03:55:17.256Z,10.00
2018-08-03T04:00:21.095Z,10.25
2018-08-03T04:05:24.808Z,11.00
2018-08-03T04:10:28.543Z,11.00
2018-08-03T04:15:32.345Z,11.00
2018-08-03T04:20:35.970Z,10.50
2018-08-03T04:25:39.657Z,10.00
2018-08-03T04:30:43.614Z,9.50
2018-08-03T04:35:47.263Z,9.50
2018-08-03T04:40:50.917Z,11.00
2018-08-03T04:45:54.633Z,10.40
2018-08-03T04:50:58.318Z,9.75
2018-08-03T04:56:02.622Z,9.50
2018-08-03T05:01:06.311Z,11.00
2018-08-03T05:06:10.039Z,10.00
2018-08-03T05:11:13.734Z,10.00
2018-08-03T05:16:17.426Z,10.00
2018-08-03T05:21:21.214Z,8.25
2018-08-03T05:26:25.297Z,8.80
2018-08-03T05:31:28.984Z,9.00
2018-08-03T05:36:32.682Z,8.50
2018-08-03T05:41:36.464Z,8.00
2018-08-03T05:46:40.126Z,8.25
2018-08-03T05:51:43.792Z,8.20
2018-08-03T05:56:47.511Z,8.00
2018-08-03T06:01:51.194Z,8.00
2018-08-03T06:06:55.177Z,8.00
2018-08-03T06:11:58.874Z,8.80
2018-08-03T06:17:02.671Z,8.25
2018-08-03T06:22:06.439Z,10.50
2018-08-03T06:27:10.247Z,9.00
2018-08-03T06:32:13.854Z,10.00
2018-08-03T06:37:17.609Z,11.25
2018-08-03T06:42:21.315Z,11.25
2018-08-03T06:47:24.979Z,11.00
2018-08-03T06:52:29.084Z,11.75
2018-08-03T06:57:32.937Z,12.00
2018-08-03T07:02:36.746Z,11.00
2018-08-03T07:07:40.401Z,11.00
2018-08-03T07:12:44.041Z,12.75
2018-08-03T07:17:47.771Z,12.25
2018-08-03T07:22:51.484Z,12.00
2018-08-03T07:27:55.246Z,9.75
2018-08-03T07:32:58.950Z,11.50
2018-08-03T07:38:02.670Z,11.25
2018-08-03T07:43:06.353Z,10.25
2018-08-03T07:48:10.030Z,12.00
2018-08-03T07:53:13.723Z,13.00
2018-08-03T07:58:17.355Z,10.50
2018-08-03T08:03:21.117Z,11.00
2018-08-03T08:08:24.749Z,11.50
2018-08-03T08:13:28.475Z,11.00
2018-08-03T08:18:33.207Z,12.00
2018-08-03T08:23:36.960Z,11.75
2018-08-03T08:28:40.851Z,11.80
2018-08-03T08:33:44.618Z,10.60
2018-08-03T08:38:48.414Z,10.50
2018-08-03T08:43:53.258Z,10.50
2018-08-03T08:48:57.970Z,10.50
2018-08-03T08:54:01.755Z,11.00
2018-08-03T08:59:05.446Z,9.00
2018-08-03T09:04:10.121Z,10.25
2018-08-03T09:09:13.837Z,10.75
2018-08-03T09:14:17.518Z,10.00
2018-08-03T09:19:22.010Z,11.60
2018-08-03T09:24:25.683Z,8.75
2018-08-03T09:29:29.417Z,11.25
2018-08-03T09:34:33.118Z,9.50
2018-08-03T09:39:36.900Z,10.00
2018-08-03T09:44:41.067Z,10.75
2018-08-03T09:49:44.803Z,10.50
2018-08-03T09:54:48.552Z,10.00
2018-08-03T09:59:52.247Z,10.75
2018-08-03T10:04:55.888Z,11.00
2018-08-03T10:09:59.701Z,9.25
2018-08-03T10:15:05.689Z,10.75
2018-08-03T10:20:09.696Z,9.00
2018-08-03T10:25:13.406Z,12.00
2018-08-03T10:30:17.245Z,10.00
2018-08-03T10:35:20.938Z,9.50
2018-08-03T10:40:24.638Z,10.20
2018-08-03T10:45:28.282Z,11.25
2018-08-03T10:50:31.963Z,10.75
2018-08-03T10:55:35.631Z,9.00
2018-08-03T11:00:39.342Z,10.00
2018-08-03T11:05:43.083Z,9.50
2018-08-03T11:10:46.724Z,9.00
2018-08-03T11:15:50.374Z,8.75
2018-08-03T11:20:54.758Z,9.00
2018-08-03T11:25:58.721Z,9.75
2018-08-03T11:31:03.623Z,9.00
2018-08-03T11:36:07.703Z,7.75
2018-08-03T11:41:11.412Z,8.60
2018-08-03T11:46:15.138Z,9.20
2018-08-03T11:51:19.346Z,10.00
2018-08-03T11:56:23.012Z,9.20
2018-08-03T12:01:26.707Z,9.00
2018-08-03T12:06:30.500Z,9.50
2018-08-03T12:11:34.262Z,9.00
2018-08-03T12:16:37.989Z,9.20
2018-08-03T12:21:42.310Z,8.20
2018-08-03T12:26:46.033Z,9.00
2018-08-03T12:31:50.075Z,8.00
2018-08-03T12:36:54.899Z,8.00
2018-08-03T12:41:58.836Z,8.00
2018-08-03T12:47:02.760Z,8.00
2018-08-03T12:52:07.102Z,8.50
2018-08-03T12:57:11.103Z,9.00
2018-08-03T13:02:14.978Z,7.60
2018-08-03T13:07:19.982Z,7.25
2018-08-03T13:12:23.615Z,8.75
2018-08-03T13:17:28.405Z,7.20
2018-08-03T13:22:32.190Z,7.00
2018-08-03T13:27:35.944Z,6.80
2018-08-03T13:32:39.761Z,7.00
2018-08-03T13:37:44.098Z,6.00
2018-08-03T13:42:48.198Z,7.00
2018-08-03T13:47:52.225Z,6.40
2018-08-03T13:52:56.123Z,8.00
2018-08-03T13:58:00.676Z,8.00
2018-08-03T14:03:04.488Z,6.75
2018-08-03T14:08:08.342Z,7.75
2018-08-03T14:13:11.998Z,6.20
2018-08-03T14:18:15.698Z,6.75
2018-08-03T14:23:19.513Z,7.00
2018-08-03T14:28:23.174Z,6.75
2018-08-03T14:33:27.077Z,6.80
2018-08-03T14:38:30.771Z,5.60
2018-08-03T14:43:34.414Z,7.00
2018-08-03T14:48:38.160Z,7.00
2018-08-03T14:53:41.898Z,5.80
2018-08-03T14:58:45.494Z,6.50
2018-08-03T15:03:53.205Z,6.60
2018-08-03T15:08:57.281Z,6.25
2018-08-03T15:14:00.978Z,6.20
2018-08-03T15:19:04.908Z,6.50
2018-08-03T15:24:08.712Z,4.50
2018-08-03T15:29:18.675Z,5.00
2018-08-03T15:34:23.917Z,5.00
2018-08-03T15:39:27.710Z,6.00
2018-08-03T15:44:31.568Z,6.25
2018-08-03T15:49:35.345Z,5.00
2018-08-03T15:54:39.102Z,6.25
2018-08-03T15:59:42.770Z,5.25
2018-08-03T16:04:46.499Z,5.00
2018-08-03T16:09:50.098Z,5.00
2018-08-03T16:14:54.369Z,4.25
2018-08-03T16:19:58.180Z,5.80
2018-08-03T16:25:04.732Z,4.00
2018-08-03T16:30:09.802Z,4.60
2018-08-03T16:35:13.670Z,4.00
2018-08-03T16:40:17.561Z,4.25
2018-08-03T16:45:21.156Z,5.50
2018-08-03T16:50:24.878Z,4.75
2018-08-03T16:55:28.674Z,6.00
2018-08-03T17:00:32.497Z,4.00
2018-08-03T17:05:36.332Z,4.00
2018-08-03T17:10:40.074Z,4.25
2018-08-03T17:15:43.903Z,4.60
2018-08-03T17:20:47.790Z,4.00
2018-08-03T17:25:51.664Z,5.00
2018-08-03T17:30:55.313Z,4.00
2018-08-03T17:35:59.011Z,3.20
2018-08-03T17:41:04.526Z,4.80
2018-08-03T17:46:08.377Z,3.75
2018-08-03T17:51:12.055Z,3.00
2018-08-03T17:56:16.059Z,5.00
2018-08-03T18:01:19.732Z,3.00
2018-08-03T18:06:23.562Z,4.25
2018-08-03T18:11:27.250Z,4.00
2018-08-03T18:16:30.909Z,3.60
2018-08-03T18:21:35.174Z,4.20
2018-08-03T18:26:38.983Z,4.00
2018-08-03T18:31:42.650Z,4.50
2018-08-03T18:36:46.353Z,3.00
2018-08-03T18:41:50.287Z,4.25
2018-08-03T18:46:54.332Z,5.00
2018-08-03T18:51:58.136Z,4.00
2018-08-03T18:57:02.393Z,3.50
2018-08-03T19:02:07.038Z,3.00
2018-08-03T19:07:10.961Z,3.00
2018-08-03T19:12:14.676Z,4.00
2018-08-03T19:17:18.379Z,3.00
2018-08-03T19:22:22.039Z,3.00
2018-08-03T19:27:25.815Z,3.75
2018-08-03T19:32:29.689Z,3.50
2018-08-03T19:37:33.674Z,3.00
2018-08-03T19:42:37.841Z,3.50
2018-08-03T19:47:41.737Z,3.00
2018-08-03T19:52:45.614Z,3.00
2018-08-03T19:57:49.299Z,5.00
2018-08-03T20:02:53.671Z,5.00
2018-08-03T20:07:57.994Z,5.00
2018-08-03T20:13:01.685Z,8.60
2018-08-03T20:18:05.371Z,8.25
2018-08-03T20:23:09.073Z,10.00
2018-08-03T20:28:12.921Z,9.60
2018-08-03T20:33:16.622Z,13.00
2018-08-03T20:38:20.305Z,11.50
2018-08-03T20:43:23.961Z,13.75
2018-08-03T20:48:27.620Z,13.00
2018-08-03T20:53:31.434Z,14.00
2018-08-03T20:58:35.104Z,14.00
2018-08-03T21:03:39.521Z,13.80
2018-08-03T21:08:43.964Z,14.20
2018-08-03T21:13:48.265Z,15.00
2018-08-03T21:18:52.080Z,15.20
2018-08-03T21:23:55.772Z,19.50
2018-08-03T21:29:00.557Z,19.00
2018-08-03T21:34:04.237Z,18.00
2018-08-03T21:39:10.603Z,17.00
2018-08-03T21:44:14.389Z,17.20
2018-08-03T21:49:18.127Z,18.80
2018-08-03T21:54:22.311Z,16.20
2018-08-03T21:59:26.167Z,18.40
2018-08-03T22:04:30.013Z,17.00
2018-08-03T22:09:33.706Z,17.75
2018-08-03T22:14:37.480Z,17.25
2018-08-03T22:19:41.186Z,17.60
2018-08-03T22:24:44.914Z,16.25
2018-08-03T22:29:48.630Z,17.00
2018-08-03T22:34:52.293Z,15.25
2018-08-03T22:39:56.987Z,17.00
2018-08-03T22:45:03.252Z,17.50
2018-08-03T23:10:36.135Z,15.80
2018-08-03T23:15:40.821Z,15.20
2018-08-03T23:20:44.533Z,16.75
2018-08-03T23:25:48.276Z,15.75
2018-08-03T23:30:51.934Z,14.80
2018-08-03T23:35:55.654Z,15.75
2018-08-03T23:40:59.397Z,16.00
2018-08-03T23:46:03.074Z,14.25
2018-08-03T23:51:06.787Z,15.00
2018-08-03T23:56:10.450Z,15.00
